Flemington, NJ

6:08 PM EST on December 25, 2014 (GMT -0500)
North Forty Doghouse | Change Station
CLOSE
Current Station
Personal Weather Station
Location: Flemington, NJ
Elevation: 180 ft
Nearby Weather Stations

Elev 180 ft 40.50 °N, 74.83 °W | Updated 3 minutes ago

Overcast
Overcast
46.0 °F
Feels Like 44 °F
N
4.0
Wind Variable Wind from NNW
Gusts 16.0 mph

Today
High -- | Low -- °F
--% Chance of Precip.
Yesterday
High -- | Low -- °F
Precip. -- in
7:21 AM 4:38 PM
Waxing Crescent, 20% visible
Pressure 29.99 in
Visibility 10.0 miles
Clouds Scattered Clouds 5500 ft
Windchill 44 °F
Dew Point 30 °F
Humidity 54%
Rainfall 0.05 in
Snow Depth Not available.
UV 0 out of 12
Pollen .10 out of 12
Air Quality Not available.
Flu Activity Not available.
METAR KSMQ 252253Z AUTO 29007G16KT 260V330 10SM SCT055 09/M02 A2999 RMK AO2 SLP156 T00891017

More Conditions Fewer Conditions

Pressure 29.99 in
Visibility 10.0 miles
Clouds Scattered Clouds 5500 ft
Windchill 44 °F
Dew Point 30 °F
Humidity 54%
Rainfall 0.05 in
Snow Depth Not available.
UV 0 out of 12
Pollen .10 out of 12
Air Quality Not available.
Flu Activity Not available.
METAR KSMQ 252253Z AUTO 29007G16KT 260V330 10SM SCT055 09/M02 A2999 RMK AO2 SLP156 T00891017

More Conditions Fewer Conditions

10-Day Weather Forecast

Almanac

Astronomy

Dec. 25, 2014 Rise Set
Actual Time
Civil Twilight
Nautical Twilight
Astronomical Twilight
Moon
Length of Visible Light
Length of Day
Tomorrow will be .
, % of the Moon is Illuminated

Today's Extremes

State Highs State Lows

Community

WunderPhotos

Upload Photos

1,780,436 photos uploaded!

WunderBlogs® & News

Nearby

Air Quality

  Air Quality AQ Index Pollutant
Not available.

Snow Depth

Station Depth Elevation

Earthquake Activity

City Distance Mag. Time & Date
Minimum magnitude displayed is 2.5.

Coastal Water Temperatures

Place Temperature

Nearby Weather Stations